Airport View

Enter AWOS ICAO identifier for current METAR.

ex. KFNL

KFFZ 261054Z AUTO 14003KT 10SM CLR 24/03 A2987 RMK AO2 SLP089 T02390028

26 Jun 2019 11:54

Other Area AWOS: KIWA - KCHD - KSDL - KPHX

TAF KIWA 260624Z 2606/2706 27009KT P6SM SCT250 FM260700 13007KT P6SM FEW250 FM261800 21008KT P6SM SKC FM262300 25009G18KT P6SM FEW250 AMD LTD TO CLD VIS AND WIND TIL 261200